sensor_id;sensor_type;location;lat;lon;timestamp;temperature;humidity
6377;DHT22;3221;48.858;10.128;2022-10-16T00:01:27;14.10;99.90
6377;DHT22;3221;48.858;10.128;2022-10-16T00:03:56;14.10;99.90
6377;DHT22;3221;48.858;10.128;2022-10-16T00:06:24;14.20;99.90
6377;DHT22;3221;48.858;10.128;2022-10-16T00:08:51;14.30;99.90
6377;DHT22;3221;48.858;10.128;2022-10-16T00:11:25;14.30;99.90
6377;DHT22;3221;48.858;10.128;2022-10-16T00:13:56;14.20;99.90
6377;DHT22;3221;48.858;10.128;2022-10-16T00:16:24;14.30;99.90
6377;DHT22;3221;48.858;10.128;2022-10-16T00:18:51;14.20;99.90
6377;DHT22;3221;48.858;10.128;2022-10-16T00:21:21;14.20;99.90
6377;DHT22;3221;48.858;10.128;2022-10-16T00:23:53;14.20;99.90
6377;DHT22;3221;48.858;10.128;2022-10-16T00:26:20;14.30;99.90
6377;DHT22;3221;48.858;10.128;2022-10-16T00:28:50;14.20;99.90
6377;DHT22;3221;48.858;10.128;2022-10-16T00:31:19;14.20;99.90
6377;DHT22;3221;48.858;10.128;2022-10-16T00:33:46;14.10;99.90
6377;DHT22;3221;48.858;10.128;2022-10-16T00:36:16;14.10;99.90
6377;DHT22;3221;48.858;10.128;2022-10-16T00:38:44;14.10;99.90
6377;DHT22;3221;48.858;10.128;2022-10-16T00:41:16;14.20;99.90
6377;DHT22;3221;48.858;10.128;2022-10-16T00:43:49;14.30;99.90
6377;DHT22;3221;48.858;10.128;2022-10-16T00:46:19;14.20;99.90
6377;DHT22;3221;48.858;10.128;2022-10-16T00:49:03;14.30;99.90
6377;DHT22;3221;48.858;10.128;2022-10-16T00:51:40;14.60;99.90
6377;DHT22;3221;48.858;10.128;2022-10-16T00:54:16;14.60;99.90
6377;DHT22;3221;48.858;10.128;2022-10-16T00:56:45;14.60;99.90
6377;DHT22;3221;48.858;10.128;2022-10-16T00:59:37;14.30;99.90
6377;DHT22;3221;48.858;10.128;2022-10-16T01:02:07;14.30;99.90
6377;DHT22;3221;48.858;10.128;2022-10-16T01:04:46;14.30;99.90
6377;DHT22;3221;48.858;10.128;2022-10-16T01:12:41;14.30;99.90
6377;DHT22;3221;48.858;10.128;2022-10-16T01:15:26;14.40;99.90
6377;DHT22;3221;48.858;10.128;2022-10-16T01:20:26;14.30;99.90
6377;DHT22;3221;48.858;10.128;2022-10-16T01:25:53;14.10;99.90
6377;DHT22;3221;48.858;10.128;2022-10-16T01:28:28;14.10;99.90
6377;DHT22;3221;48.858;10.128;2022-10-16T01:30:58;14.50;99.90
6377;DHT22;3221;48.858;10.128;2022-10-16T01:33:39;14.50;99.90
6377;DHT22;3221;48.858;10.128;2022-10-16T01:36:14;14.50;99.90
6377;DHT22;3221;48.858;10.128;2022-10-16T01:38:44;14.30;99.90
6377;DHT22;3221;48.858;10.128;2022-10-16T01:43:45;14.30;99.90
6377;DHT22;3221;48.858;10.128;2022-10-16T01:46:14;14.40;99.90
6377;DHT22;3221;48.858;10.128;2022-10-16T01:48:43;14.30;99.90
6377;DHT22;3221;48.858;10.128;2022-10-16T01:51:12;14.30;99.90
6377;DHT22;3221;48.858;10.128;2022-10-16T01:53:42;14.30;99.90
6377;DHT22;3221;48.858;10.128;2022-10-16T01:56:12;14.30;99.90
6377;DHT22;3221;48.858;10.128;2022-10-16T01:58:44;14.20;99.90
6377;DHT22;3221;48.858;10.128;2022-10-16T02:01:15;14.10;99.90
6377;DHT22;3221;48.858;10.128;2022-10-16T02:03:44;14.20;99.90
6377;DHT22;3221;48.858;10.128;2022-10-16T02:06:13;14.20;99.90
6377;DHT22;3221;48.858;10.128;2022-10-16T02:08:40;14.20;99.90
6377;DHT22;3221;48.858;10.128;2022-10-16T02:11:10;14.10;99.90
6377;DHT22;3221;48.858;10.128;2022-10-16T02:13:48;14.20;99.90
6377;DHT22;3221;48.858;10.128;2022-10-16T02:16:17;14.20;99.90
6377;DHT22;3221;48.858;10.128;2022-10-16T02:18:44;14.00;99.90
6377;DHT22;3221;48.858;10.128;2022-10-16T02:21:19;14.10;99.90
6377;DHT22;3221;48.858;10.128;2022-10-16T02:26:48;14.00;99.90
6377;DHT22;3221;48.858;10.128;2022-10-16T02:29:18;14.00;99.90
6377;DHT22;3221;48.858;10.128;2022-10-16T02:31:50;14.00;99.90
6377;DHT22;3221;48.858;10.128;2022-10-16T02:34:18;13.90;99.90
6377;DHT22;3221;48.858;10.128;2022-10-16T02:36:48;14.10;99.90
6377;DHT22;3221;48.858;10.128;2022-10-16T02:39:17;13.90;99.90
6377;DHT22;3221;48.858;10.128;2022-10-16T02:41:45;13.90;99.90
6377;DHT22;3221;48.858;10.128;2022-10-16T02:44:11;13.90;99.90
6377;DHT22;3221;48.858;10.128;2022-10-16T02:46:38;13.90;99.90
6377;DHT22;3221;48.858;10.128;2022-10-16T02:49:05;13.90;99.90
6377;DHT22;3221;48.858;10.128;2022-10-16T02:51:32;13.90;99.90
6377;DHT22;3221;48.858;10.128;2022-10-16T02:53:59;13.90;99.90
6377;DHT22;3221;48.858;10.128;2022-10-16T02:56:26;14.00;99.90
6377;DHT22;3221;48.858;10.128;2022-10-16T02:58:53;14.00;99.90
6377;DHT22;3221;48.858;10.128;2022-10-16T03:01:20;14.00;99.90
6377;DHT22;3221;48.858;10.128;2022-10-16T03:03:47;14.00;99.90
6377;DHT22;3221;48.858;10.128;2022-10-16T03:06:14;14.00;99.90
6377;DHT22;3221;48.858;10.128;2022-10-16T03:08:41;14.00;99.90
6377;DHT22;3221;48.858;10.128;2022-10-16T03:11:08;14.00;99.90
6377;DHT22;3221;48.858;10.128;2022-10-16T03:13:35;14.00;99.90
6377;DHT22;3221;48.858;10.128;2022-10-16T03:16:02;14.10;99.90
6377;DHT22;3221;48.858;10.128;2022-10-16T03:18:29;14.20;99.90
6377;DHT22;3221;48.858;10.128;2022-10-16T03:20:56;14.30;99.90
6377;DHT22;3221;48.858;10.128;2022-10-16T03:23:23;14.30;99.90
6377;DHT22;3221;48.858;10.128;2022-10-16T03:25:50;14.20;99.90
6377;DHT22;3221;48.858;10.128;2022-10-16T03:28:17;14.10;99.90
6377;DHT22;3221;48.858;10.128;2022-10-16T03:30:44;14.10;99.90
6377;DHT22;3221;48.858;10.128;2022-10-16T03:33:11;14.10;99.90
6377;DHT22;3221;48.858;10.128;2022-10-16T03:35:38;14.10;99.90
6377;DHT22;3221;48.858;10.128;2022-10-16T03:38:05;14.00;99.90
6377;DHT22;3221;48.858;10.128;2022-10-16T03:40:32;13.90;99.90
6377;DHT22;3221;48.858;10.128;2022-10-16T03:42:59;13.90;99.90
6377;DHT22;3221;48.858;10.128;2022-10-16T03:45:25;13.90;99.90
6377;DHT22;3221;48.858;10.128;2022-10-16T03:47:53;14.00;99.90
6377;DHT22;3221;48.858;10.128;2022-10-16T03:50:20;13.90;99.90
6377;DHT22;3221;48.858;10.128;2022-10-16T03:52:47;14.10;99.90
6377;DHT22;3221;48.858;10.128;2022-10-16T03:55:14;14.10;99.90
6377;DHT22;3221;48.858;10.128;2022-10-16T03:57:41;14.30;99.90
6377;DHT22;3221;48.858;10.128;2022-10-16T04:00:08;14.30;99.90
6377;DHT22;3221;48.858;10.128;2022-10-16T04:02:38;14.40;99.90
6377;DHT22;3221;48.858;10.128;2022-10-16T04:05:06;14.30;99.90
6377;DHT22;3221;48.858;10.128;2022-10-16T04:07:33;14.20;99.90
6377;DHT22;3221;48.858;10.128;2022-10-16T04:10:00;14.30;99.90
6377;DHT22;3221;48.858;10.128;2022-10-16T04:12:27;14.40;99.90
6377;DHT22;3221;48.858;10.128;2022-10-16T04:14:54;14.30;99.90
6377;DHT22;3221;48.858;10.128;2022-10-16T04:17:21;14.30;99.90
6377;DHT22;3221;48.858;10.128;2022-10-16T04:19:48;14.40;99.90
6377;DHT22;3221;48.858;10.128;2022-10-16T04:22:15;14.30;99.90
6377;DHT22;3221;48.858;10.128;2022-10-16T04:24:42;14.20;99.90
6377;DHT22;3221;48.858;10.128;2022-10-16T04:27:09;14.10;99.90
6377;DHT22;3221;48.858;10.128;2022-10-16T04:29:36;14.00;99.90
6377;DHT22;3221;48.858;10.128;2022-10-16T04:32:03;14.10;99.90
6377;DHT22;3221;48.858;10.128;2022-10-16T04:34:29;14.00;99.90
6377;DHT22;3221;48.858;10.128;2022-10-16T04:36:56;14.00;99.90
6377;DHT22;3221;48.858;10.128;2022-10-16T04:39:23;14.00;99.90
6377;DHT22;3221;48.858;10.128;2022-10-16T04:41:50;14.10;99.90
6377;DHT22;3221;48.858;10.128;2022-10-16T04:44:17;14.30;99.90
6377;DHT22;3221;48.858;10.128;2022-10-16T04:46:44;14.20;99.90
6377;DHT22;3221;48.858;10.128;2022-10-16T04:49:12;14.40;99.90
6377;DHT22;3221;48.858;10.128;2022-10-16T04:51:39;14.30;99.90
6377;DHT22;3221;48.858;10.128;2022-10-16T04:54:06;14.10;99.90
6377;DHT22;3221;48.858;10.128;2022-10-16T04:56:33;14.20;99.90
6377;DHT22;3221;48.858;10.128;2022-10-16T04:59:06;14.20;99.90
6377;DHT22;3221;48.858;10.128;2022-10-16T05:01:33;14.10;99.90
6377;DHT22;3221;48.858;10.128;2022-10-16T05:04:00;14.10;99.90
6377;DHT22;3221;48.858;10.128;2022-10-16T05:06:28;14.00;99.90
6377;DHT22;3221;48.858;10.128;2022-10-16T05:08:54;14.20;99.90
6377;DHT22;3221;48.858;10.128;2022-10-16T05:11:21;14.30;99.90
6377;DHT22;3221;48.858;10.128;2022-10-16T05:13:48;14.30;99.90
6377;DHT22;3221;48.858;10.128;2022-10-16T05:16:21;14.20;99.90
6377;DHT22;3221;48.858;10.128;2022-10-16T05:18:53;14.20;99.90
6377;DHT22;3221;48.858;10.128;2022-10-16T05:21:30;14.20;99.90
6377;DHT22;3221;48.858;10.128;2022-10-16T05:23:56;14.00;99.90
6377;DHT22;3221;48.858;10.128;2022-10-16T05:26:23;14.10;99.90
6377;DHT22;3221;48.858;10.128;2022-10-16T05:28:50;14.20;99.90
6377;DHT22;3221;48.858;10.128;2022-10-16T05:31:17;14.20;99.90
6377;DHT22;3221;48.858;10.128;2022-10-16T05:33:48;14.10;99.90
6377;DHT22;3221;48.858;10.128;2022-10-16T05:36:15;14.20;99.90
6377;DHT22;3221;48.858;10.128;2022-10-16T05:38:42;14.20;99.90
6377;DHT22;3221;48.858;10.128;2022-10-16T05:41:09;14.10;99.90
6377;DHT22;3221;48.858;10.128;2022-10-16T05:43:36;14.20;99.90
6377;DHT22;3221;48.858;10.128;2022-10-16T05:46:05;14.10;99.90
6377;DHT22;3221;48.858;10.128;2022-10-16T05:48:32;14.20;99.90
6377;DHT22;3221;48.858;10.128;2022-10-16T05:51:07;14.10;99.90
6377;DHT22;3221;48.858;10.128;2022-10-16T05:53:37;14.10;99.90
6377;DHT22;3221;48.858;10.128;2022-10-16T05:56:06;14.00;99.90
6377;DHT22;3221;48.858;10.128;2022-10-16T05:58:36;14.00;99.90
6377;DHT22;3221;48.858;10.128;2022-10-16T06:01:06;13.90;99.90
6377;DHT22;3221;48.858;10.128;2022-10-16T06:03:34;13.80;99.90
6377;DHT22;3221;48.858;10.128;2022-10-16T06:06:15;13.80;99.90
6377;DHT22;3221;48.858;10.128;2022-10-16T06:08:44;13.80;99.90
6377;DHT22;3221;48.858;10.128;2022-10-16T06:11:14;13.80;99.90
6377;DHT22;3221;48.858;10.128;2022-10-16T06:13:41;13.90;99.90
6377;DHT22;3221;48.858;10.128;2022-10-16T06:16:10;13.80;99.90
6377;DHT22;3221;48.858;10.128;2022-10-16T06:18:37;13.80;99.90
6377;DHT22;3221;48.858;10.128;2022-10-16T06:21:09;13.90;99.90
6377;DHT22;3221;48.858;10.128;2022-10-16T06:23:37;13.90;99.90
6377;DHT22;3221;48.858;10.128;2022-10-16T06:26:08;13.80;99.90
6377;DHT22;3221;48.858;10.128;2022-10-16T06:28:36;13.80;99.90
6377;DHT22;3221;48.858;10.128;2022-10-16T06:31:04;13.80;99.90
6377;DHT22;3221;48.858;10.128;2022-10-16T06:33:35;13.80;99.90
6377;DHT22;3221;48.858;10.128;2022-10-16T06:36:07;13.80;99.90
6377;DHT22;3221;48.858;10.128;2022-10-16T06:38:36;13.80;99.90
6377;DHT22;3221;48.858;10.128;2022-10-16T06:41:04;13.80;99.90
6377;DHT22;3221;48.858;10.128;2022-10-16T06:43:32;13.90;99.90
6377;DHT22;3221;48.858;10.128;2022-10-16T06:46:00;13.90;99.90
6377;DHT22;3221;48.858;10.128;2022-10-16T06:48:28;14.00;99.90
6377;DHT22;3221;48.858;10.128;2022-10-16T06:51:07;14.00;99.90
6377;DHT22;3221;48.858;10.128;2022-10-16T06:53:37;13.90;99.90
6377;DHT22;3221;48.858;10.128;2022-10-16T06:56:25;13.90;99.90
6377;DHT22;3221;48.858;10.128;2022-10-16T06:58:53;13.90;99.90
6377;DHT22;3221;48.858;10.128;2022-10-16T07:01:22;14.00;99.90
6377;DHT22;3221;48.858;10.128;2022-10-16T07:03:50;13.90;99.90
6377;DHT22;3221;48.858;10.128;2022-10-16T07:06:19;13.90;99.90
6377;DHT22;3221;48.858;10.128;2022-10-16T07:08:47;13.90;99.90
6377;DHT22;3221;48.858;10.128;2022-10-16T07:11:17;13.90;99.90
6377;DHT22;3221;48.858;10.128;2022-10-16T07:13:44;13.90;99.90
6377;DHT22;3221;48.858;10.128;2022-10-16T07:16:23;13.90;99.90
6377;DHT22;3221;48.858;10.128;2022-10-16T07:19:00;14.00;99.90
6377;DHT22;3221;48.858;10.128;2022-10-16T07:21:30;14.10;99.90
6377;DHT22;3221;48.858;10.128;2022-10-16T07:23:59;14.10;99.90
6377;DHT22;3221;48.858;10.128;2022-10-16T07:26:31;14.10;99.90
6377;DHT22;3221;48.858;10.128;2022-10-16T07:28:59;14.10;99.90
6377;DHT22;3221;48.858;10.128;2022-10-16T07:31:27;14.10;99.90
6377;DHT22;3221;48.858;10.128;2022-10-16T07:33:54;14.10;99.90
6377;DHT22;3221;48.858;10.128;2022-10-16T07:36:21;14.20;99.90
6377;DHT22;3221;48.858;10.128;2022-10-16T07:38:48;14.30;99.90
6377;DHT22;3221;48.858;10.128;2022-10-16T07:41:19;14.30;99.90
6377;DHT22;3221;48.858;10.128;2022-10-16T07:43:51;14.30;99.90
6377;DHT22;3221;48.858;10.128;2022-10-16T07:46:19;14.30;99.90
6377;DHT22;3221;48.858;10.128;2022-10-16T07:48:47;14.30;99.90
6377;DHT22;3221;48.858;10.128;2022-10-16T07:51:18;14.40;99.90
6377;DHT22;3221;48.858;10.128;2022-10-16T07:53:46;14.40;99.90
6377;DHT22;3221;48.858;10.128;2022-10-16T07:56:14;14.30;99.90
6377;DHT22;3221;48.858;10.128;2022-10-16T07:58:41;14.40;99.90
6377;DHT22;3221;48.858;10.128;2022-10-16T08:01:18;14.50;99.90
6377;DHT22;3221;48.858;10.128;2022-10-16T08:03:50;14.50;99.90
6377;DHT22;3221;48.858;10.128;2022-10-16T08:06:19;14.50;99.90
6377;DHT22;3221;48.858;10.128;2022-10-16T08:08:52;14.50;99.90
6377;DHT22;3221;48.858;10.128;2022-10-16T08:11:19;14.50;99.90
6377;DHT22;3221;48.858;10.128;2022-10-16T08:13:46;14.60;99.90
6377;DHT22;3221;48.858;10.128;2022-10-16T08:16:13;14.60;99.90
6377;DHT22;3221;48.858;10.128;2022-10-16T08:18:40;14.70;99.90
6377;DHT22;3221;48.858;10.128;2022-10-16T08:21:13;14.70;99.90
6377;DHT22;3221;48.858;10.128;2022-10-16T08:23:47;14.80;99.90
6377;DHT22;3221;48.858;10.128;2022-10-16T08:26:24;14.90;99.90
6377;DHT22;3221;48.858;10.128;2022-10-16T08:28:51;15.00;99.90
6377;DHT22;3221;48.858;10.128;2022-10-16T08:31:18;15.20;99.90
6377;DHT22;3221;48.858;10.128;2022-10-16T08:33:46;15.30;99.90
6377;DHT22;3221;48.858;10.128;2022-10-16T08:36:14;15.30;99.90
6377;DHT22;3221;48.858;10.128;2022-10-16T08:38:41;15.10;99.90
6377;DHT22;3221;48.858;10.128;2022-10-16T08:41:35;15.10;99.90
6377;DHT22;3221;48.858;10.128;2022-10-16T08:49:00;15.00;99.90
6377;DHT22;3221;48.858;10.128;2022-10-16T08:51:35;15.00;99.90
6377;DHT22;3221;48.858;10.128;2022-10-16T08:54:24;15.10;99.90
6377;DHT22;3221;48.858;10.128;2022-10-16T08:56:55;15.00;99.90
6377;DHT22;3221;48.858;10.128;2022-10-16T08:59:22;15.00;99.90
6377;DHT22;3221;48.858;10.128;2022-10-16T09:01:51;15.00;99.90
6377;DHT22;3221;48.858;10.128;2022-10-16T09:12:21;15.10;99.90
6377;DHT22;3221;48.858;10.128;2022-10-16T09:15:13;15.40;99.90
6377;DHT22;3221;48.858;10.128;2022-10-16T09:18:00;15.40;99.90
6377;DHT22;3221;48.858;10.128;2022-10-16T09:20:50;15.40;99.90
6377;DHT22;3221;48.858;10.128;2022-10-16T09:23:34;15.30;99.90
6377;DHT22;3221;48.858;10.128;2022-10-16T09:26:03;15.60;99.90
6377;DHT22;3221;48.858;10.128;2022-10-16T09:28:30;15.60;99.90
6377;DHT22;3221;48.858;10.128;2022-10-16T09:30:58;15.70;99.90
6377;DHT22;3221;48.858;10.128;2022-10-16T09:33:32;15.50;99.90
6377;DHT22;3221;48.858;10.128;2022-10-16T09:36:03;15.70;99.90
6377;DHT22;3221;48.858;10.128;2022-10-16T09:38:35;15.70;99.90
6377;DHT22;3221;48.858;10.128;2022-10-16T09:41:20;15.80;99.90
6377;DHT22;3221;48.858;10.128;2022-10-16T09:43:56;15.70;99.90
6377;DHT22;3221;48.858;10.128;2022-10-16T09:46:30;15.60;99.90
6377;DHT22;3221;48.858;10.128;2022-10-16T09:49:02;15.50;99.90
6377;DHT22;3221;48.858;10.128;2022-10-16T09:51:35;15.60;99.90
6377;DHT22;3221;48.858;10.128;2022-10-16T09:54:14;15.50;99.90
6377;DHT22;3221;48.858;10.128;2022-10-16T09:56:41;15.70;99.90
6377;DHT22;3221;48.858;10.128;2022-10-16T09:59:18;15.70;99.90
6377;DHT22;3221;48.858;10.128;2022-10-16T10:02:00;15.70;99.90
6377;DHT22;3221;48.858;10.128;2022-10-16T10:04:39;15.60;99.90
6377;DHT22;3221;48.858;10.128;2022-10-16T10:07:17;15.60;99.90
6377;DHT22;3221;48.858;10.128;2022-10-16T10:09:46;15.60;99.90
6377;DHT22;3221;48.858;10.128;2022-10-16T10:12:27;15.60;99.90
6377;DHT22;3221;48.858;10.128;2022-10-16T10:14:56;15.80;99.90
6377;DHT22;3221;48.858;10.128;2022-10-16T10:17:26;15.80;99.90
6377;DHT22;3221;48.858;10.128;2022-10-16T10:22:44;16.00;99.90
6377;DHT22;3221;48.858;10.128;2022-10-16T10:31:29;16.00;99.90
6377;DHT22;3221;48.858;10.128;2022-10-16T10:36:09;16.10;99.90
6377;DHT22;3221;48.858;10.128;2022-10-16T10:39:17;16.10;99.90
6377;DHT22;3221;48.858;10.128;2022-10-16T10:50:05;16.20;99.90
6377;DHT22;3221;48.858;10.128;2022-10-16T11:05:49;16.40;99.90
6377;DHT22;3221;48.858;10.128;2022-10-16T11:08:44;16.60;99.90
6377;DHT22;3221;48.858;10.128;2022-10-16T11:11:32;16.60;99.90
6377;DHT22;3221;48.858;10.128;2022-10-16T11:19:41;17.00;99.90
6377;DHT22;3221;48.858;10.128;2022-10-16T11:25:22;17.10;99.90
6377;DHT22;3221;48.858;10.128;2022-10-16T11:35:53;17.10;99.90
6377;DHT22;3221;48.858;10.128;2022-10-16T11:41:28;17.40;99.90
6377;DHT22;3221;48.858;10.128;2022-10-16T11:44:26;17.70;99.90
6377;DHT22;3221;48.858;10.128;2022-10-16T11:52:55;17.70;99.90
6377;DHT22;3221;48.858;10.128;2022-10-16T11:55:31;17.80;99.90
6377;DHT22;3221;48.858;10.128;2022-10-16T11:58:05;17.80;99.90
6377;DHT22;3221;48.858;10.128;2022-10-16T12:00:44;18.00;99.90
6377;DHT22;3221;48.858;10.128;2022-10-16T12:08:14;18.10;99.90
6377;DHT22;3221;48.858;10.128;2022-10-16T12:10:46;18.00;99.90
6377;DHT22;3221;48.858;10.128;2022-10-16T12:13:37;18.00;99.90
6377;DHT22;3221;48.858;10.128;2022-10-16T12:18:45;18.40;99.90
6377;DHT22;3221;48.858;10.128;2022-10-16T12:21:14;18.50;99.90
6377;DHT22;3221;48.858;10.128;2022-10-16T12:26:34;18.40;99.90
6377;DHT22;3221;48.858;10.128;2022-10-16T12:31:46;18.30;99.90
6377;DHT22;3221;48.858;10.128;2022-10-16T12:34:26;18.40;99.90
6377;DHT22;3221;48.858;10.128;2022-10-16T12:36:55;18.40;99.90
6377;DHT22;3221;48.858;10.128;2022-10-16T12:39:24;18.30;99.90
6377;DHT22;3221;48.858;10.128;2022-10-16T12:42:03;18.50;99.90
6377;DHT22;3221;48.858;10.128;2022-10-16T12:44:35;18.60;99.90
6377;DHT22;3221;48.858;10.128;2022-10-16T12:47:04;18.90;99.90
6377;DHT22;3221;48.858;10.128;2022-10-16T12:49:37;18.80;99.90
6377;DHT22;3221;48.858;10.128;2022-10-16T12:52:25;18.70;99.90
6377;DHT22;3221;48.858;10.128;2022-10-16T12:54:56;18.80;99.90
6377;DHT22;3221;48.858;10.128;2022-10-16T13:00:45;18.80;99.90
6377;DHT22;3221;48.858;10.128;2022-10-16T13:03:43;18.80;99.90
6377;DHT22;3221;48.858;10.128;2022-10-16T13:09:24;19.00;99.90
6377;DHT22;3221;48.858;10.128;2022-10-16T13:15:18;19.40;99.90
6377;DHT22;3221;48.858;10.128;2022-10-16T13:21:00;19.60;99.90
6377;DHT22;3221;48.858;10.128;2022-10-16T13:29:01;19.30;99.90
6377;DHT22;3221;48.858;10.128;2022-10-16T13:31:30;19.20;99.90
6377;DHT22;3221;48.858;10.128;2022-10-16T13:33:58;19.20;99.90
6377;DHT22;3221;48.858;10.128;2022-10-16T13:36:34;19.10;99.90
6377;DHT22;3221;48.858;10.128;2022-10-16T13:39:20;19.10;99.90
6377;DHT22;3221;48.858;10.128;2022-10-16T13:42:09;19.20;99.90
6377;DHT22;3221;48.858;10.128;2022-10-16T13:44:53;19.20;99.90
6377;DHT22;3221;48.858;10.128;2022-10-16T13:47:28;19.10;99.90
6377;DHT22;3221;48.858;10.128;2022-10-16T13:50:15;19.00;99.90
6377;DHT22;3221;48.858;10.128;2022-10-16T13:52:43;18.90;99.90
6377;DHT22;3221;48.858;10.128;2022-10-16T13:55:12;18.80;99.90
6377;DHT22;3221;48.858;10.128;2022-10-16T13:57:40;18.70;99.90
6377;DHT22;3221;48.858;10.128;2022-10-16T14:00:25;18.70;99.90
6377;DHT22;3221;48.858;10.128;2022-10-16T14:03:12;18.60;99.90
6377;DHT22;3221;48.858;10.128;2022-10-16T14:08:13;18.60;99.90
6377;DHT22;3221;48.858;10.128;2022-10-16T14:10:40;18.60;99.90
6377;DHT22;3221;48.858;10.128;2022-10-16T14:13:12;18.50;99.90
6377;DHT22;3221;48.858;10.128;2022-10-16T14:15:47;18.50;99.90
6377;DHT22;3221;48.858;10.128;2022-10-16T14:18:25;18.50;99.90
6377;DHT22;3221;48.858;10.128;2022-10-16T14:21:06;18.60;99.90
6377;DHT22;3221;48.858;10.128;2022-10-16T14:23:38;18.80;99.90
6377;DHT22;3221;48.858;10.128;2022-10-16T14:26:17;18.90;99.90
6377;DHT22;3221;48.858;10.128;2022-10-16T14:28:47;18.90;99.90
6377;DHT22;3221;48.858;10.128;2022-10-16T14:31:25;19.00;99.90
6377;DHT22;3221;48.858;10.128;2022-10-16T14:33:52;19.00;99.90
6377;DHT22;3221;48.858;10.128;2022-10-16T14:36:19;18.90;99.90
6377;DHT22;3221;48.858;10.128;2022-10-16T14:39:17;18.80;99.90
6377;DHT22;3221;48.858;10.128;2022-10-16T14:41:47;18.70;99.90
6377;DHT22;3221;48.858;10.128;2022-10-16T14:44:15;18.60;99.90
6377;DHT22;3221;48.858;10.128;2022-10-16T14:46:44;18.70;99.90
6377;DHT22;3221;48.858;10.128;2022-10-16T14:51:40;18.50;99.90
6377;DHT22;3221;48.858;10.128;2022-10-16T14:54:16;18.50;99.90
6377;DHT22;3221;48.858;10.128;2022-10-16T14:57:02;18.40;99.90
6377;DHT22;3221;48.858;10.128;2022-10-16T14:59:36;18.50;99.90
6377;DHT22;3221;48.858;10.128;2022-10-16T15:04:47;18.40;99.90
6377;DHT22;3221;48.858;10.128;2022-10-16T15:07:14;18.40;99.90
6377;DHT22;3221;48.858;10.128;2022-10-16T15:09:41;18.40;99.90
6377;DHT22;3221;48.858;10.128;2022-10-16T15:12:15;18.40;99.90
6377;DHT22;3221;48.858;10.128;2022-10-16T15:14:43;18.40;99.90
6377;DHT22;3221;48.858;10.128;2022-10-16T15:17:11;18.40;99.90
6377;DHT22;3221;48.858;10.128;2022-10-16T15:19:38;18.30;99.90
6377;DHT22;3221;48.858;10.128;2022-10-16T15:22:05;18.40;99.90
6377;DHT22;3221;48.858;10.128;2022-10-16T15:24:32;18.60;99.90
6377;DHT22;3221;48.858;10.128;2022-10-16T15:26:59;18.60;99.90
6377;DHT22;3221;48.858;10.128;2022-10-16T15:29:26;18.60;99.90
6377;DHT22;3221;48.858;10.128;2022-10-16T15:31:53;18.50;99.90
6377;DHT22;3221;48.858;10.128;2022-10-16T15:34:20;18.60;99.90
6377;DHT22;3221;48.858;10.128;2022-10-16T15:36:47;18.60;99.90
6377;DHT22;3221;48.858;10.128;2022-10-16T15:39:19;18.60;99.90
6377;DHT22;3221;48.858;10.128;2022-10-16T15:41:47;18.60;99.90
6377;DHT22;3221;48.858;10.128;2022-10-16T15:44:18;18.60;99.90
6377;DHT22;3221;48.858;10.128;2022-10-16T15:46:45;18.60;99.90
6377;DHT22;3221;48.858;10.128;2022-10-16T15:49:13;18.50;99.90
6377;DHT22;3221;48.858;10.128;2022-10-16T15:51:41;18.50;99.90
6377;DHT22;3221;48.858;10.128;2022-10-16T15:54:09;18.40;99.90
6377;DHT22;3221;48.858;10.128;2022-10-16T15:56:36;18.40;99.90
6377;DHT22;3221;48.858;10.128;2022-10-16T15:59:04;18.40;99.90
6377;DHT22;3221;48.858;10.128;2022-10-16T16:01:35;18.30;99.90
6377;DHT22;3221;48.858;10.128;2022-10-16T16:04:03;18.30;99.90
6377;DHT22;3221;48.858;10.128;2022-10-16T16:06:45;18.20;99.90
6377;DHT22;3221;48.858;10.128;2022-10-16T16:09:13;18.30;99.90
6377;DHT22;3221;48.858;10.128;2022-10-16T16:11:41;18.20;99.90
6377;DHT22;3221;48.858;10.128;2022-10-16T16:14:13;17.90;99.90
6377;DHT22;3221;48.858;10.128;2022-10-16T16:16:41;18.00;99.90
6377;DHT22;3221;48.858;10.128;2022-10-16T16:19:08;18.00;99.90
6377;DHT22;3221;48.858;10.128;2022-10-16T16:21:38;18.00;99.90
6377;DHT22;3221;48.858;10.128;2022-10-16T16:24:05;18.10;99.90
6377;DHT22;3221;48.858;10.128;2022-10-16T16:26:36;18.00;99.90
6377;DHT22;3221;48.858;10.128;2022-10-16T16:29:06;18.00;99.90
6377;DHT22;3221;48.858;10.128;2022-10-16T16:31:33;18.00;99.90
6377;DHT22;3221;48.858;10.128;2022-10-16T16:34:01;17.90;99.90
6377;DHT22;3221;48.858;10.128;2022-10-16T16:36:28;18.00;99.90
6377;DHT22;3221;48.858;10.128;2022-10-16T16:38:56;17.90;99.90
6377;DHT22;3221;48.858;10.128;2022-10-16T16:41:25;17.90;99.90
6377;DHT22;3221;48.858;10.128;2022-10-16T16:43:54;18.00;99.90
6377;DHT22;3221;48.858;10.128;2022-10-16T16:46:21;18.00;99.90
6377;DHT22;3221;48.858;10.128;2022-10-16T16:48:49;18.00;99.90
6377;DHT22;3221;48.858;10.128;2022-10-16T16:51:22;17.90;99.90
6377;DHT22;3221;48.858;10.128;2022-10-16T16:53:51;17.90;99.90
6377;DHT22;3221;48.858;10.128;2022-10-16T16:56:19;17.80;99.90
6377;DHT22;3221;48.858;10.128;2022-10-16T16:58:48;17.80;99.90
6377;DHT22;3221;48.858;10.128;2022-10-16T17:01:15;17.80;99.90
6377;DHT22;3221;48.858;10.128;2022-10-16T17:03:49;17.70;99.90
6377;DHT22;3221;48.858;10.128;2022-10-16T17:06:18;17.70;99.90
6377;DHT22;3221;48.858;10.128;2022-10-16T17:08:47;17.70;99.90
6377;DHT22;3221;48.858;10.128;2022-10-16T17:11:23;17.60;99.90
6377;DHT22;3221;48.858;10.128;2022-10-16T17:13:51;17.70;99.90
6377;DHT22;3221;48.858;10.128;2022-10-16T17:16:25;17.60;99.90
6377;DHT22;3221;48.858;10.128;2022-10-16T17:18:52;17.70;99.90
6377;DHT22;3221;48.858;10.128;2022-10-16T17:21:20;17.70;99.90
6377;DHT22;3221;48.858;10.128;2022-10-16T17:23:47;17.70;99.90
6377;DHT22;3221;48.858;10.128;2022-10-16T17:26:17;17.70;99.90
6377;DHT22;3221;48.858;10.128;2022-10-16T17:28:44;17.60;99.90
6377;DHT22;3221;48.858;10.128;2022-10-16T17:31:16;17.60;99.90
6377;DHT22;3221;48.858;10.128;2022-10-16T17:33:44;17.60;99.90
6377;DHT22;3221;48.858;10.128;2022-10-16T17:36:12;17.60;99.90
6377;DHT22;3221;48.858;10.128;2022-10-16T17:38:41;17.60;99.90
6377;DHT22;3221;48.858;10.128;2022-10-16T17:41:20;17.60;99.90
6377;DHT22;3221;48.858;10.128;2022-10-16T17:43:48;17.50;99.90
6377;DHT22;3221;48.858;10.128;2022-10-16T17:46:17;17.50;99.90
6377;DHT22;3221;48.858;10.128;2022-10-16T17:48:46;17.50;99.90
6377;DHT22;3221;48.858;10.128;2022-10-16T17:51:17;17.50;99.90
6377;DHT22;3221;48.858;10.128;2022-10-16T17:53:48;17.50;99.90
6377;DHT22;3221;48.858;10.128;2022-10-16T17:56:15;17.50;99.90
6377;DHT22;3221;48.858;10.128;2022-10-16T17:58:42;17.50;99.90
6377;DHT22;3221;48.858;10.128;2022-10-16T18:01:18;17.50;99.90
6377;DHT22;3221;48.858;10.128;2022-10-16T18:04:00;17.50;99.90
6377;DHT22;3221;48.858;10.128;2022-10-16T18:06:27;17.50;99.90
6377;DHT22;3221;48.858;10.128;2022-10-16T18:08:56;17.50;99.90
6377;DHT22;3221;48.858;10.128;2022-10-16T18:11:24;17.40;99.90
6377;DHT22;3221;48.858;10.128;2022-10-16T18:13:55;17.50;99.90
6377;DHT22;3221;48.858;10.128;2022-10-16T18:16:24;17.40;99.90